Startpagina
METAR-TAF:

METAR-TAF

Vliegvelden :

Tegucigalpa, Honduras

Luchthaven Toncontín

breedte: 14-03N, lengte: 087-13W, hoogte: 994 m

Actueel weer

Dit bericht is 33 minuten geleden gemaakt, om 09:00 UTC
Weinig wind
Temperatuur 14°C
Vochtigheid 100%
Druk 1018 hPa
Zicht 10 km of meer
Weinig wolken op 2400 ft

METAR: MHTG 200900Z 00000KT 9999 FEW024 14/14 Q1018 A3006 NOSIG

Tijdstip: 03:33 (09:33 UTC)

Verwachting

Dit bericht is 5 uur en het 8 minuten geleden gemaakt, om 04:25 UTC
Verwachting geldig van 20 om 06 UTC tot 21 om 06 UTC
Wind kt uit het noorden
Zicht 10 km of meer
Verspreide wolken op 2600 ft
Wijzigt naar
van 20 om 10 UTC tot 20 om 12 UTC
Weinig wolken op 800 ft
Verspreide wolken op 2400 ft
Wijzigt naar
van 20 om 20 UTC tot 20 om 22 UTC
Wind 12 kt uit het noorden
Verspreide wolken op 2800 ft

TAF: MHTG 200425Z 2006/2106 00000KT 9999 SCT026 TX26/2020Z TN13/2012Z BECMG 2010/2012 FEW008 SCT024 BECMG 2020/2022 36012KT SCT028

Waarnemingen en weersverwachtingen van meer dan 4000 vliegvelden (METAR en TAF).

De beschikbare stations zijn de gele en rode punten op de kaart.

Ga met uw muis naar het station om de naam te zien.

Klik dan om waarnemingen en weersverwachtingen te zien.

kaart wijzigen: klik op de groene knoppen met een zwart kruis om in te zoomen, op de groene knop met een streepje om uit te zoomen of op de groene pijlen voor aangrenzende kaarten.


METAR-TAF: